sensor_id;sensor_type;location;lat;lon;timestamp;P1;durP1;ratioP1;P2;durP2;ratioP2
11319;SDS011;5715;48.234;14.320;2022-10-16T00:02:39;5.00;;;4.50;;
11319;SDS011;5715;48.234;14.320;2022-10-16T00:05:27;6.57;;;4.13;;
11319;SDS011;5715;48.234;14.320;2022-10-16T00:08:15;9.03;;;4.20;;
11319;SDS011;5715;48.234;14.320;2022-10-16T00:11:03;7.37;;;4.53;;
11319;SDS011;5715;48.234;14.320;2022-10-16T00:14:01;4.60;;;3.97;;
11319;SDS011;5715;48.234;14.320;2022-10-16T00:16:51;4.43;;;3.40;;
11319;SDS011;5715;48.234;14.320;2022-10-16T00:19:38;4.47;;;3.53;;
11319;SDS011;5715;48.234;14.320;2022-10-16T00:22:26;3.87;;;2.83;;
11319;SDS011;5715;48.234;14.320;2022-10-16T00:25:14;5.67;;;3.77;;
11319;SDS011;5715;48.234;14.320;2022-10-16T00:28:01;3.13;;;2.83;;
11319;SDS011;5715;48.234;14.320;2022-10-16T00:30:49;18.43;;;3.43;;
11319;SDS011;5715;48.234;14.320;2022-10-16T00:33:37;7.87;;;3.77;;
11319;SDS011;5715;48.234;14.320;2022-10-16T00:36:26;6.40;;;3.93;;
11319;SDS011;5715;48.234;14.320;2022-10-16T00:39:14;9.33;;;4.40;;
11319;SDS011;5715;48.234;14.320;2022-10-16T00:42:02;5.90;;;4.60;;
11319;SDS011;5715;48.234;14.320;2022-10-16T00:44:54;12.43;;;4.57;;
11319;SDS011;5715;48.234;14.320;2022-10-16T00:47:44;5.73;;;3.40;;
11319;SDS011;5715;48.234;14.320;2022-10-16T00:50:36;8.17;;;4.13;;
11319;SDS011;5715;48.234;14.320;2022-10-16T00:53:24;4.47;;;3.73;;
11319;SDS011;5715;48.234;14.320;2022-10-16T00:56:13;8.93;;;4.33;;
11319;SDS011;5715;48.234;14.320;2022-10-16T00:59:01;10.47;;;4.77;;
11319;SDS011;5715;48.234;14.320;2022-10-16T01:01:58;19.80;;;4.57;;
11319;SDS011;5715;48.234;14.320;2022-10-16T01:04:48;8.20;;;3.87;;
11319;SDS011;5715;48.234;14.320;2022-10-16T01:11:10;6.00;;;3.23;;
11319;SDS011;5715;48.234;14.320;2022-10-16T01:21:08;19.53;;;4.53;;
11319;SDS011;5715;48.234;14.320;2022-10-16T01:27:38;5.00;;;4.03;;
11319;SDS011;5715;48.234;14.320;2022-10-16T01:30:32;5.30;;;4.03;;
11319;SDS011;5715;48.234;14.320;2022-10-16T01:33:24;10.60;;;3.47;;
11319;SDS011;5715;48.234;14.320;2022-10-16T01:37:04;11.63;;;4.63;;
11319;SDS011;5715;48.234;14.320;2022-10-16T01:39:50;8.53;;;3.93;;
11319;SDS011;5715;48.234;14.320;2022-10-16T01:42:50;6.57;;;4.13;;
11319;SDS011;5715;48.234;14.320;2022-10-16T01:45:46;3.17;;;2.73;;
11319;SDS011;5715;48.234;14.320;2022-10-16T01:48:34;9.77;;;3.27;;
11319;SDS011;5715;48.234;14.320;2022-10-16T01:51:23;4.60;;;3.43;;
11319;SDS011;5715;48.234;14.320;2022-10-16T01:54:13;5.40;;;3.03;;
11319;SDS011;5715;48.234;14.320;2022-10-16T01:57:05;4.30;;;2.80;;
11319;SDS011;5715;48.234;14.320;2022-10-16T01:59:58;9.13;;;3.60;;
11319;SDS011;5715;48.234;14.320;2022-10-16T02:02:54;4.10;;;2.83;;
11319;SDS011;5715;48.234;14.320;2022-10-16T02:05:53;6.53;;;3.10;;
11319;SDS011;5715;48.234;14.320;2022-10-16T02:08:44;9.97;;;3.17;;
11319;SDS011;5715;48.234;14.320;2022-10-16T02:11:33;5.73;;;3.57;;
11319;SDS011;5715;48.234;14.320;2022-10-16T02:14:20;3.73;;;3.33;;
11319;SDS011;5715;48.234;14.320;2022-10-16T02:17:12;3.80;;;3.10;;
11319;SDS011;5715;48.234;14.320;2022-10-16T02:20:03;3.90;;;3.20;;
11319;SDS011;5715;48.234;14.320;2022-10-16T02:22:51;7.93;;;3.20;;
11319;SDS011;5715;48.234;14.320;2022-10-16T02:25:42;4.83;;;3.10;;
11319;SDS011;5715;48.234;14.320;2022-10-16T02:28:37;3.83;;;3.13;;
11319;SDS011;5715;48.234;14.320;2022-10-16T02:31:34;3.77;;;3.00;;
11319;SDS011;5715;48.234;14.320;2022-10-16T02:34:27;3.33;;;2.23;;
11319;SDS011;5715;48.234;14.320;2022-10-16T02:37:19;2.80;;;2.60;;
11319;SDS011;5715;48.234;14.320;2022-10-16T02:40:07;6.57;;;3.30;;
11319;SDS011;5715;48.234;14.320;2022-10-16T02:42:56;2.63;;;2.43;;
11319;SDS011;5715;48.234;14.320;2022-10-16T02:45:44;4.60;;;3.03;;
11319;SDS011;5715;48.234;14.320;2022-10-16T02:48:32;2.63;;;2.43;;
11319;SDS011;5715;48.234;14.320;2022-10-16T02:51:19;7.83;;;2.83;;
11319;SDS011;5715;48.234;14.320;2022-10-16T02:54:07;2.80;;;2.47;;
11319;SDS011;5715;48.234;14.320;2022-10-16T02:56:54;2.37;;;2.00;;
11319;SDS011;5715;48.234;14.320;2022-10-16T02:59:42;2.37;;;2.17;;
11319;SDS011;5715;48.234;14.320;2022-10-16T03:02:29;2.90;;;2.60;;
11319;SDS011;5715;48.234;14.320;2022-10-16T03:05:17;2.83;;;2.57;;
11319;SDS011;5715;48.234;14.320;2022-10-16T03:08:05;3.00;;;2.70;;
11319;SDS011;5715;48.234;14.320;2022-10-16T03:10:52;3.13;;;2.83;;
11319;SDS011;5715;48.234;14.320;2022-10-16T03:13:40;3.00;;;2.27;;
11319;SDS011;5715;48.234;14.320;2022-10-16T03:16:27;2.80;;;2.57;;
11319;SDS011;5715;48.234;14.320;2022-10-16T03:19:16;2.50;;;2.30;;
11319;SDS011;5715;48.234;14.320;2022-10-16T03:22:04;2.57;;;2.37;;
11319;SDS011;5715;48.234;14.320;2022-10-16T03:24:52;2.73;;;2.53;;
11319;SDS011;5715;48.234;14.320;2022-10-16T03:27:39;18.97;;;2.77;;
11319;SDS011;5715;48.234;14.320;2022-10-16T03:30:27;2.50;;;2.23;;
11319;SDS011;5715;48.234;14.320;2022-10-16T03:33:14;2.50;;;2.17;;
11319;SDS011;5715;48.234;14.320;2022-10-16T03:36:02;2.73;;;2.53;;
11319;SDS011;5715;48.234;14.320;2022-10-16T03:38:50;2.53;;;2.33;;
11319;SDS011;5715;48.234;14.320;2022-10-16T03:41:37;2.23;;;1.80;;
11319;SDS011;5715;48.234;14.320;2022-10-16T03:44:25;2.10;;;1.90;;
11319;SDS011;5715;48.234;14.320;2022-10-16T03:47:12;2.40;;;2.00;;
11319;SDS011;5715;48.234;14.320;2022-10-16T03:50:00;3.73;;;2.20;;
11319;SDS011;5715;48.234;14.320;2022-10-16T03:52:47;2.67;;;2.47;;
11319;SDS011;5715;48.234;14.320;2022-10-16T03:55:35;2.90;;;2.00;;
11319;SDS011;5715;48.234;14.320;2022-10-16T03:58:23;2.20;;;1.70;;
11319;SDS011;5715;48.234;14.320;2022-10-16T04:01:10;3.20;;;2.63;;
11319;SDS011;5715;48.234;14.320;2022-10-16T04:03:58;2.50;;;2.30;;
11319;SDS011;5715;48.234;14.320;2022-10-16T04:06:45;2.27;;;1.90;;
11319;SDS011;5715;48.234;14.320;2022-10-16T04:09:33;2.27;;;2.07;;
11319;SDS011;5715;48.234;14.320;2022-10-16T04:12:20;2.90;;;2.60;;
11319;SDS011;5715;48.234;14.320;2022-10-16T04:15:08;5.20;;;2.43;;
11319;SDS011;5715;48.234;14.320;2022-10-16T04:17:56;3.87;;;2.63;;
11319;SDS011;5715;48.234;14.320;2022-10-16T04:20:44;10.13;;;2.53;;
11319;SDS011;5715;48.234;14.320;2022-10-16T04:23:31;3.73;;;2.10;;
11319;SDS011;5715;48.234;14.320;2022-10-16T04:26:19;2.70;;;2.00;;
11319;SDS011;5715;48.234;14.320;2022-10-16T04:29:07;2.53;;;2.33;;
11319;SDS011;5715;48.234;14.320;2022-10-16T04:31:54;3.70;;;2.83;;
11319;SDS011;5715;48.234;14.320;2022-10-16T04:34:42;2.10;;;2.00;;
11319;SDS011;5715;48.234;14.320;2022-10-16T04:37:30;2.27;;;2.07;;
11319;SDS011;5715;48.234;14.320;2022-10-16T04:40:17;2.10;;;1.73;;
11319;SDS011;5715;48.234;14.320;2022-10-16T04:43:04;2.30;;;2.10;;
11319;SDS011;5715;48.234;14.320;2022-10-16T04:45:52;2.63;;;1.97;;
11319;SDS011;5715;48.234;14.320;2022-10-16T04:48:41;2.10;;;1.90;;
11319;SDS011;5715;48.234;14.320;2022-10-16T04:51:29;1.93;;;1.83;;
11319;SDS011;5715;48.234;14.320;2022-10-16T04:54:17;3.57;;;2.23;;
11319;SDS011;5715;48.234;14.320;2022-10-16T04:57:04;2.17;;;1.97;;
11319;SDS011;5715;48.234;14.320;2022-10-16T04:59:51;2.60;;;2.40;;
11319;SDS011;5715;48.234;14.320;2022-10-16T05:02:40;3.20;;;2.60;;
11319;SDS011;5715;48.234;14.320;2022-10-16T05:05:27;4.13;;;2.77;;
11319;SDS011;5715;48.234;14.320;2022-10-16T05:08:15;2.23;;;2.03;;
11319;SDS011;5715;48.234;14.320;2022-10-16T05:11:03;2.20;;;2.07;;
11319;SDS011;5715;48.234;14.320;2022-10-16T05:13:50;2.27;;;2.07;;
11319;SDS011;5715;48.234;14.320;2022-10-16T05:16:41;3.90;;;2.73;;
11319;SDS011;5715;48.234;14.320;2022-10-16T05:19:29;2.23;;;2.03;;
11319;SDS011;5715;48.234;14.320;2022-10-16T05:22:16;2.33;;;2.13;;
11319;SDS011;5715;48.234;14.320;2022-10-16T05:25:04;3.07;;;2.30;;
11319;SDS011;5715;48.234;14.320;2022-10-16T05:27:52;3.57;;;3.27;;
11319;SDS011;5715;48.234;14.320;2022-10-16T05:30:39;2.77;;;2.40;;
11319;SDS011;5715;48.234;14.320;2022-10-16T05:33:27;3.10;;;2.67;;
11319;SDS011;5715;48.234;14.320;2022-10-16T05:36:14;8.27;;;2.47;;
11319;SDS011;5715;48.234;14.320;2022-10-16T05:39:02;3.33;;;2.30;;
11319;SDS011;5715;48.234;14.320;2022-10-16T05:41:50;7.33;;;2.17;;
11319;SDS011;5715;48.234;14.320;2022-10-16T05:44:37;2.33;;;2.13;;
11319;SDS011;5715;48.234;14.320;2022-10-16T05:47:25;2.13;;;1.97;;
11319;SDS011;5715;48.234;14.320;2022-10-16T05:50:13;2.43;;;2.23;;
11319;SDS011;5715;48.234;14.320;2022-10-16T05:53:00;2.17;;;2.03;;
11319;SDS011;5715;48.234;14.320;2022-10-16T05:55:51;2.60;;;2.40;;
11319;SDS011;5715;48.234;14.320;2022-10-16T05:58:40;1.90;;;1.77;;
11319;SDS011;5715;48.234;14.320;2022-10-16T06:01:28;2.60;;;2.40;;
11319;SDS011;5715;48.234;14.320;2022-10-16T06:04:17;2.23;;;2.03;;
11319;SDS011;5715;48.234;14.320;2022-10-16T06:07:05;2.00;;;1.90;;
11319;SDS011;5715;48.234;14.320;2022-10-16T06:09:52;3.63;;;2.60;;
11319;SDS011;5715;48.234;14.320;2022-10-16T06:12:40;11.63;;;1.60;;
11319;SDS011;5715;48.234;14.320;2022-10-16T06:15:27;2.37;;;2.17;;
11319;SDS011;5715;48.234;14.320;2022-10-16T06:18:15;2.23;;;2.03;;
11319;SDS011;5715;48.234;14.320;2022-10-16T06:21:07;1.90;;;1.73;;
11319;SDS011;5715;48.234;14.320;2022-10-16T06:24:11;2.47;;;2.23;;
11319;SDS011;5715;48.234;14.320;2022-10-16T06:26:58;2.30;;;2.10;;
11319;SDS011;5715;48.234;14.320;2022-10-16T06:29:46;2.73;;;2.47;;
11319;SDS011;5715;48.234;14.320;2022-10-16T06:32:33;2.23;;;2.03;;
11319;SDS011;5715;48.234;14.320;2022-10-16T06:35:21;2.63;;;2.20;;
11319;SDS011;5715;48.234;14.320;2022-10-16T06:38:08;4.63;;;2.47;;
11319;SDS011;5715;48.234;14.320;2022-10-16T06:40:56;2.50;;;2.30;;
11319;SDS011;5715;48.234;14.320;2022-10-16T06:43:44;3.27;;;2.43;;
11319;SDS011;5715;48.234;14.320;2022-10-16T06:46:32;2.67;;;2.20;;
11319;SDS011;5715;48.234;14.320;2022-10-16T06:49:20;2.00;;;1.77;;
11319;SDS011;5715;48.234;14.320;2022-10-16T06:52:09;2.13;;;1.87;;
11319;SDS011;5715;48.234;14.320;2022-10-16T06:54:56;1.97;;;1.77;;
11319;SDS011;5715;48.234;14.320;2022-10-16T06:57:44;1.90;;;1.77;;
11319;SDS011;5715;48.234;14.320;2022-10-16T07:00:35;6.43;;;1.90;;
11319;SDS011;5715;48.234;14.320;2022-10-16T07:03:22;1.80;;;1.70;;
11319;SDS011;5715;48.234;14.320;2022-10-16T07:06:11;1.77;;;1.67;;
11319;SDS011;5715;48.234;14.320;2022-10-16T07:09:03;3.03;;;2.27;;
11319;SDS011;5715;48.234;14.320;2022-10-16T07:11:55;3.97;;;2.97;;
11319;SDS011;5715;48.234;14.320;2022-10-16T07:14:42;2.47;;;2.27;;
11319;SDS011;5715;48.234;14.320;2022-10-16T07:17:30;3.88;;;2.20;;
11319;SDS011;5715;48.234;14.320;2022-10-16T07:20:17;2.70;;;2.50;;
11319;SDS011;5715;48.234;14.320;2022-10-16T07:23:06;2.23;;;2.03;;
11319;SDS011;5715;48.234;14.320;2022-10-16T07:25:53;2.00;;;1.90;;
11319;SDS011;5715;48.234;14.320;2022-10-16T07:28:42;3.17;;;2.50;;
11319;SDS011;5715;48.234;14.320;2022-10-16T07:31:30;2.53;;;2.33;;
11319;SDS011;5715;48.234;14.320;2022-10-16T07:34:18;3.50;;;2.37;;
11319;SDS011;5715;48.234;14.320;2022-10-16T07:37:08;2.25;;;2.08;;
11319;SDS011;5715;48.234;14.320;2022-10-16T07:39:55;2.50;;;2.30;;
11319;SDS011;5715;48.234;14.320;2022-10-16T07:42:43;2.85;;;2.65;;
11319;SDS011;5715;48.234;14.320;2022-10-16T07:45:30;2.47;;;2.28;;
11319;SDS011;5715;48.234;14.320;2022-10-16T07:48:18;2.38;;;2.17;;
11319;SDS011;5715;48.234;14.320;2022-10-16T07:51:06;2.20;;;2.00;;
11319;SDS011;5715;48.234;14.320;2022-10-16T07:53:55;1.95;;;1.70;;
11319;SDS011;5715;48.234;14.320;2022-10-16T07:56:43;1.30;;;1.20;;
11319;SDS011;5715;48.234;14.320;2022-10-16T07:59:30;1.80;;;1.70;;
11319;SDS011;5715;48.234;14.320;2022-10-16T08:02:18;1.67;;;1.58;;
11319;SDS011;5715;48.234;14.320;2022-10-16T08:05:06;1.95;;;1.85;;
11319;SDS011;5715;48.234;14.320;2022-10-16T08:07:54;2.13;;;2.00;;
11319;SDS011;5715;48.234;14.320;2022-10-16T08:10:43;3.45;;;2.13;;
11319;SDS011;5715;48.234;14.320;2022-10-16T08:13:32;2.15;;;1.95;;
11319;SDS011;5715;48.234;14.320;2022-10-16T08:16:19;1.92;;;1.58;;
11319;SDS011;5715;48.234;14.320;2022-10-16T08:19:08;1.80;;;1.70;;
11319;SDS011;5715;48.234;14.320;2022-10-16T08:21:55;1.73;;;1.63;;
11319;SDS011;5715;48.234;14.320;2022-10-16T08:24:43;2.35;;;1.90;;
11319;SDS011;5715;48.234;14.320;2022-10-16T08:27:31;2.47;;;2.00;;
11319;SDS011;5715;48.234;14.320;2022-10-16T08:30:20;2.05;;;1.88;;
11319;SDS011;5715;48.234;14.320;2022-10-16T08:33:09;2.28;;;2.08;;
11319;SDS011;5715;48.234;14.320;2022-10-16T08:35:57;6.50;;;2.00;;
11319;SDS011;5715;48.234;14.320;2022-10-16T08:38:47;2.00;;;1.83;;
11319;SDS011;5715;48.234;14.320;2022-10-16T08:49:05;3.67;;;1.38;;
11319;SDS011;5715;48.234;14.320;2022-10-16T08:51:37;1.45;;;1.35;;
11319;SDS011;5715;48.234;14.320;2022-10-16T08:54:34;1.90;;;1.52;;
11319;SDS011;5715;48.234;14.320;2022-10-16T08:57:32;1.50;;;1.40;;
11319;SDS011;5715;48.234;14.320;2022-10-16T09:00:20;2.10;;;1.88;;
11319;SDS011;5715;48.234;14.320;2022-10-16T09:13:19;2.42;;;1.30;;
11319;SDS011;5715;48.234;14.320;2022-10-16T09:16:30;2.28;;;1.25;;
11319;SDS011;5715;48.234;14.320;2022-10-16T09:19:37;1.50;;;1.40;;
11319;SDS011;5715;48.234;14.320;2022-10-16T09:26:14;1.60;;;1.33;;
11319;SDS011;5715;48.234;14.320;2022-10-16T09:29:04;1.48;;;1.38;;
11319;SDS011;5715;48.234;14.320;2022-10-16T09:31:52;1.40;;;1.30;;
11319;SDS011;5715;48.234;14.320;2022-10-16T09:34:54;1.80;;;1.52;;
11319;SDS011;5715;48.234;14.320;2022-10-16T09:37:44;2.78;;;1.30;;
11319;SDS011;5715;48.234;14.320;2022-10-16T09:40:37;1.65;;;1.55;;
11319;SDS011;5715;48.234;14.320;2022-10-16T09:46:44;2.72;;;2.53;;
11319;SDS011;5715;48.234;14.320;2022-10-16T09:49:31;2.00;;;1.90;;
11319;SDS011;5715;48.234;14.320;2022-10-16T09:52:19;1.92;;;1.73;;
11319;SDS011;5715;48.234;14.320;2022-10-16T09:55:15;3.33;;;2.00;;
11319;SDS011;5715;48.234;14.320;2022-10-16T09:58:11;1.75;;;1.65;;
11319;SDS011;5715;48.234;14.320;2022-10-16T10:01:00;1.90;;;1.80;;
11319;SDS011;5715;48.234;14.320;2022-10-16T10:03:48;14.60;;;2.40;;
11319;SDS011;5715;48.234;14.320;2022-10-16T10:06:58;1.67;;;1.58;;
11319;SDS011;5715;48.234;14.320;2022-10-16T10:09:45;1.75;;;1.50;;
11319;SDS011;5715;48.234;14.320;2022-10-16T10:12:33;6.82;;;1.80;;
11319;SDS011;5715;48.234;14.320;2022-10-16T10:15:33;1.75;;;1.65;;
11319;SDS011;5715;48.234;14.320;2022-10-16T10:18:28;2.40;;;2.25;;
11319;SDS011;5715;48.234;14.320;2022-10-16T10:21:18;3.85;;;2.55;;
11319;SDS011;5715;48.234;14.320;2022-10-16T10:24:09;5.07;;;1.95;;
11319;SDS011;5715;48.234;14.320;2022-10-16T10:27:09;2.20;;;2.00;;
11319;SDS011;5715;48.234;14.320;2022-10-16T10:39:43;1.55;;;1.45;;
11319;SDS011;5715;48.234;14.320;2022-10-16T10:42:48;1.60;;;1.50;;
11319;SDS011;5715;48.234;14.320;2022-10-16T10:46:04;1.42;;;1.33;;
11319;SDS011;5715;48.234;14.320;2022-10-16T11:03:12;2.08;;;1.95;;
11319;SDS011;5715;48.234;14.320;2022-10-16T11:06:20;1.70;;;1.60;;
11319;SDS011;5715;48.234;14.320;2022-10-16T11:09:18;5.70;;;1.48;;
11319;SDS011;5715;48.234;14.320;2022-10-16T11:15:13;1.90;;;1.55;;
11319;SDS011;5715;48.234;14.320;2022-10-16T11:18:16;1.65;;;1.55;;
11319;SDS011;5715;48.234;14.320;2022-10-16T11:21:13;1.85;;;1.73;;
11319;SDS011;5715;48.234;14.320;2022-10-16T11:24:09;1.92;;;1.80;;
11319;SDS011;5715;48.234;14.320;2022-10-16T11:27:19;2.03;;;1.83;;
11319;SDS011;5715;48.234;14.320;2022-10-16T11:30:25;3.22;;;1.60;;
11319;SDS011;5715;48.234;14.320;2022-10-16T11:36:38;1.02;;;0.93;;
11319;SDS011;5715;48.234;14.320;2022-10-16T11:39:31;1.33;;;0.80;;
11319;SDS011;5715;48.234;14.320;2022-10-16T11:42:27;0.82;;;0.80;;
11319;SDS011;5715;48.234;14.320;2022-10-16T11:45:29;1.60;;;1.10;;
11319;SDS011;5715;48.234;14.320;2022-10-16T11:48:43;1.48;;;0.98;;
11319;SDS011;5715;48.234;14.320;2022-10-16T11:51:40;1.23;;;1.13;;
11319;SDS011;5715;48.234;14.320;2022-10-16T11:55:16;0.80;;;0.80;;
11319;SDS011;5715;48.234;14.320;2022-10-16T12:01:17;1.73;;;1.63;;
11319;SDS011;5715;48.234;14.320;2022-10-16T12:04:41;23.15;;;2.30;;
11319;SDS011;5715;48.234;14.320;2022-10-16T12:07:39;1.30;;;1.23;;
11319;SDS011;5715;48.234;14.320;2022-10-16T12:11:20;2.28;;;1.35;;
11319;SDS011;5715;48.234;14.320;2022-10-16T12:20:26;3.38;;;1.35;;
11319;SDS011;5715;48.234;14.320;2022-10-16T12:23:19;5.25;;;1.10;;
11319;SDS011;5715;48.234;14.320;2022-10-16T12:26:12;1.05;;;1.00;;
11319;SDS011;5715;48.234;14.320;2022-10-16T12:35:34;9.40;;;0.98;;
11319;SDS011;5715;48.234;14.320;2022-10-16T12:41:36;0.70;;;0.70;;
11319;SDS011;5715;48.234;14.320;2022-10-16T12:44:26;0.75;;;0.75;;
11319;SDS011;5715;48.234;14.320;2022-10-16T12:47:35;2.63;;;1.20;;
11319;SDS011;5715;48.234;14.320;2022-10-16T12:50:35;1.27;;;0.80;;
11319;SDS011;5715;48.234;14.320;2022-10-16T12:53:27;4.32;;;1.00;;
11319;SDS011;5715;48.234;14.320;2022-10-16T12:56:22;1.17;;;1.02;;
11319;SDS011;5715;48.234;14.320;2022-10-16T13:05:47;0.82;;;0.75;;
11319;SDS011;5715;48.234;14.320;2022-10-16T13:22:32;6.15;;;1.02;;
11319;SDS011;5715;48.234;14.320;2022-10-16T13:28:40;3.45;;;1.25;;
11319;SDS011;5715;48.234;14.320;2022-10-16T13:31:28;0.73;;;0.70;;
11319;SDS011;5715;48.234;14.320;2022-10-16T13:34:19;1.35;;;1.08;;
11319;SDS011;5715;48.234;14.320;2022-10-16T13:37:16;0.68;;;0.68;;
11319;SDS011;5715;48.234;14.320;2022-10-16T13:43:10;0.80;;;0.80;;
11319;SDS011;5715;48.234;14.320;2022-10-16T13:46:03;0.77;;;0.77;;
11319;SDS011;5715;48.234;14.320;2022-10-16T13:49:11;2.28;;;0.80;;
11319;SDS011;5715;48.234;14.320;2022-10-16T13:52:00;0.80;;;0.80;;
11319;SDS011;5715;48.234;14.320;2022-10-16T13:54:48;2.45;;;1.40;;
11319;SDS011;5715;48.234;14.320;2022-10-16T13:57:35;0.90;;;0.90;;
11319;SDS011;5715;48.234;14.320;2022-10-16T14:00:24;2.50;;;1.45;;
11319;SDS011;5715;48.234;14.320;2022-10-16T14:03:17;1.52;;;1.42;;
11319;SDS011;5715;48.234;14.320;2022-10-16T14:06:06;5.78;;;1.08;;
11319;SDS011;5715;48.234;14.320;2022-10-16T14:09:05;3.78;;;1.20;;
11319;SDS011;5715;48.234;14.320;2022-10-16T14:12:14;1.20;;;1.10;;
11319;SDS011;5715;48.234;14.320;2022-10-16T14:15:03;2.15;;;1.15;;
11319;SDS011;5715;48.234;14.320;2022-10-16T14:17:51;1.00;;;1.00;;
11319;SDS011;5715;48.234;14.320;2022-10-16T14:20:40;2.58;;;1.27;;
11319;SDS011;5715;48.234;14.320;2022-10-16T14:23:32;2.05;;;1.20;;
11319;SDS011;5715;48.234;14.320;2022-10-16T14:26:26;6.68;;;1.58;;
11319;SDS011;5715;48.234;14.320;2022-10-16T14:29:17;1.13;;;1.13;;
11319;SDS011;5715;48.234;14.320;2022-10-16T14:32:20;1.10;;;1.10;;
11319;SDS011;5715;48.234;14.320;2022-10-16T14:38:24;3.13;;;1.80;;
11319;SDS011;5715;48.234;14.320;2022-10-16T14:41:12;1.90;;;1.80;;
11319;SDS011;5715;48.234;14.320;2022-10-16T14:44:03;1.90;;;1.80;;
11319;SDS011;5715;48.234;14.320;2022-10-16T14:46:51;1.70;;;1.60;;
11319;SDS011;5715;48.234;14.320;2022-10-16T14:49:40;1.65;;;1.55;;
11319;SDS011;5715;48.234;14.320;2022-10-16T14:52:29;1.70;;;1.60;;
11319;SDS011;5715;48.234;14.320;2022-10-16T14:55:16;3.75;;;2.08;;
11319;SDS011;5715;48.234;14.320;2022-10-16T14:58:05;1.50;;;1.40;;
11319;SDS011;5715;48.234;14.320;2022-10-16T15:00:56;1.80;;;1.70;;
11319;SDS011;5715;48.234;14.320;2022-10-16T15:03:44;7.95;;;1.75;;
11319;SDS011;5715;48.234;14.320;2022-10-16T15:06:31;3.30;;;1.63;;
11319;SDS011;5715;48.234;14.320;2022-10-16T15:09:19;4.38;;;3.72;;
11319;SDS011;5715;48.234;14.320;2022-10-16T15:12:06;2.03;;;1.92;;
11319;SDS011;5715;48.234;14.320;2022-10-16T15:14:54;9.63;;;2.05;;
11319;SDS011;5715;48.234;14.320;2022-10-16T15:17:42;1.58;;;1.48;;
11319;SDS011;5715;48.234;14.320;2022-10-16T15:20:30;2.03;;;1.92;;
11319;SDS011;5715;48.234;14.320;2022-10-16T15:23:21;1.63;;;1.52;;
11319;SDS011;5715;48.234;14.320;2022-10-16T15:26:09;1.80;;;1.70;;
11319;SDS011;5715;48.234;14.320;2022-10-16T15:28:57;3.25;;;1.33;;
11319;SDS011;5715;48.234;14.320;2022-10-16T15:31:44;1.65;;;1.55;;
11319;SDS011;5715;48.234;14.320;2022-10-16T15:34:34;1.40;;;1.30;;
11319;SDS011;5715;48.234;14.320;2022-10-16T15:37:21;6.15;;;1.38;;
11319;SDS011;5715;48.234;14.320;2022-10-16T15:40:09;2.70;;;1.20;;
11319;SDS011;5715;48.234;14.320;2022-10-16T15:42:57;1.13;;;1.08;;
11319;SDS011;5715;48.234;14.320;2022-10-16T15:45:47;3.45;;;1.58;;
11319;SDS011;5715;48.234;14.320;2022-10-16T15:48:51;5.50;;;1.48;;
11319;SDS011;5715;48.234;14.320;2022-10-16T15:51:45;0.80;;;0.80;;
11319;SDS011;5715;48.234;14.320;2022-10-16T15:54:32;0.98;;;0.98;;
11319;SDS011;5715;48.234;14.320;2022-10-16T15:57:20;6.13;;;1.00;;
11319;SDS011;5715;48.234;14.320;2022-10-16T16:00:09;2.08;;;1.02;;
11319;SDS011;5715;48.234;14.320;2022-10-16T16:03:00;0.68;;;0.68;;
11319;SDS011;5715;48.234;14.320;2022-10-16T16:05:48;1.10;;;1.00;;
11319;SDS011;5715;48.234;14.320;2022-10-16T16:08:36;2.17;;;0.88;;
11319;SDS011;5715;48.234;14.320;2022-10-16T16:11:24;0.52;;;0.52;;
11319;SDS011;5715;48.234;14.320;2022-10-16T16:14:13;2.15;;;0.70;;
11319;SDS011;5715;48.234;14.320;2022-10-16T16:17:01;0.75;;;0.60;;
11319;SDS011;5715;48.234;14.320;2022-10-16T16:19:48;1.40;;;0.70;;
11319;SDS011;5715;48.234;14.320;2022-10-16T16:22:36;1.50;;;0.80;;
11319;SDS011;5715;48.234;14.320;2022-10-16T16:25:23;0.70;;;0.70;;
11319;SDS011;5715;48.234;14.320;2022-10-16T16:28:11;4.45;;;4.25;;
11319;SDS011;5715;48.234;14.320;2022-10-16T16:31:00;1.30;;;1.20;;
11319;SDS011;5715;48.234;14.320;2022-10-16T16:33:49;1.50;;;1.40;;
11319;SDS011;5715;48.234;14.320;2022-10-16T16:36:37;1.50;;;1.40;;
11319;SDS011;5715;48.234;14.320;2022-10-16T16:39:26;2.47;;;2.28;;
11319;SDS011;5715;48.234;14.320;2022-10-16T16:42:14;2.20;;;2.10;;
11319;SDS011;5715;48.234;14.320;2022-10-16T16:45:01;2.35;;;2.20;;
11319;SDS011;5715;48.234;14.320;2022-10-16T16:47:49;4.63;;;1.80;;
11319;SDS011;5715;48.234;14.320;2022-10-16T16:50:37;3.10;;;1.92;;
11319;SDS011;5715;48.234;14.320;2022-10-16T16:53:24;5.60;;;2.75;;
11319;SDS011;5715;48.234;14.320;2022-10-16T16:56:12;2.22;;;1.58;;
11319;SDS011;5715;48.234;14.320;2022-10-16T16:59:00;1.80;;;1.70;;
11319;SDS011;5715;48.234;14.320;2022-10-16T17:01:48;1.77;;;1.67;;
11319;SDS011;5715;48.234;14.320;2022-10-16T17:04:42;1.80;;;1.70;;
11319;SDS011;5715;48.234;14.320;2022-10-16T17:07:30;2.47;;;2.28;;
11319;SDS011;5715;48.234;14.320;2022-10-16T17:10:21;3.55;;;2.40;;
11319;SDS011;5715;48.234;14.320;2022-10-16T17:13:08;2.78;;;1.95;;
11319;SDS011;5715;48.234;14.320;2022-10-16T17:15:56;2.55;;;2.35;;
11319;SDS011;5715;48.234;14.320;2022-10-16T17:18:43;2.85;;;2.28;;
11319;SDS011;5715;48.234;14.320;2022-10-16T17:21:31;2.78;;;2.58;;
11319;SDS011;5715;48.234;14.320;2022-10-16T17:24:18;2.90;;;2.42;;
11319;SDS011;5715;48.234;14.320;2022-10-16T17:27:07;6.32;;;2.38;;
11319;SDS011;5715;48.234;14.320;2022-10-16T17:29:55;3.58;;;3.15;;
11319;SDS011;5715;48.234;14.320;2022-10-16T17:32:43;2.67;;;2.30;;
11319;SDS011;5715;48.234;14.320;2022-10-16T17:35:37;3.70;;;2.35;;
11319;SDS011;5715;48.234;14.320;2022-10-16T17:38:31;2.58;;;2.35;;
11319;SDS011;5715;48.234;14.320;2022-10-16T17:41:22;2.75;;;2.55;;
11319;SDS011;5715;48.234;14.320;2022-10-16T17:44:10;3.10;;;2.53;;
11319;SDS011;5715;48.234;14.320;2022-10-16T17:47:05;4.63;;;2.63;;
11319;SDS011;5715;48.234;14.320;2022-10-16T17:49:53;2.80;;;2.60;;
11319;SDS011;5715;48.234;14.320;2022-10-16T17:52:41;12.57;;;3.38;;
11319;SDS011;5715;48.234;14.320;2022-10-16T17:55:28;4.25;;;2.65;;
11319;SDS011;5715;48.234;14.320;2022-10-16T17:58:16;5.60;;;2.97;;
11319;SDS011;5715;48.234;14.320;2022-10-16T18:01:13;5.30;;;3.67;;
11319;SDS011;5715;48.234;14.320;2022-10-16T18:04:04;3.60;;;3.13;;
11319;SDS011;5715;48.234;14.320;2022-10-16T18:06:55;6.68;;;3.70;;
11319;SDS011;5715;48.234;14.320;2022-10-16T18:09:42;10.13;;;4.03;;
11319;SDS011;5715;48.234;14.320;2022-10-16T18:12:50;12.57;;;4.10;;
11319;SDS011;5715;48.234;14.320;2022-10-16T18:15:37;6.00;;;3.75;;
11319;SDS011;5715;48.234;14.320;2022-10-16T18:18:25;5.22;;;4.40;;
11319;SDS011;5715;48.234;14.320;2022-10-16T18:21:16;10.50;;;5.55;;
11319;SDS011;5715;48.234;14.320;2022-10-16T18:24:05;8.02;;;5.45;;
11319;SDS011;5715;48.234;14.320;2022-10-16T18:26:53;6.40;;;4.95;;
11319;SDS011;5715;48.234;14.320;2022-10-16T18:29:42;8.23;;;5.53;;
11319;SDS011;5715;48.234;14.320;2022-10-16T18:32:29;11.05;;;6.22;;
11319;SDS011;5715;48.234;14.320;2022-10-16T18:35:17;8.82;;;5.00;;
11319;SDS011;5715;48.234;14.320;2022-10-16T18:38:04;9.18;;;5.85;;
11319;SDS011;5715;48.234;14.320;2022-10-16T18:40:52;8.05;;;5.40;;
11319;SDS011;5715;48.234;14.320;2022-10-16T18:43:39;8.77;;;5.97;;
11319;SDS011;5715;48.234;14.320;2022-10-16T18:46:27;8.95;;;5.45;;
11319;SDS011;5715;48.234;14.320;2022-10-16T18:49:15;9.95;;;6.20;;
11319;SDS011;5715;48.234;14.320;2022-10-16T18:52:02;9.85;;;6.05;;
11319;SDS011;5715;48.234;14.320;2022-10-16T18:54:53;14.20;;;6.07;;
11319;SDS011;5715;48.234;14.320;2022-10-16T18:57:43;9.18;;;6.47;;
11319;SDS011;5715;48.234;14.320;2022-10-16T19:00:30;9.10;;;6.30;;
11319;SDS011;5715;48.234;14.320;2022-10-16T19:03:19;7.45;;;5.55;;
11319;SDS011;5715;48.234;14.320;2022-10-16T19:06:08;7.00;;;5.87;;
11319;SDS011;5715;48.234;14.320;2022-10-16T19:09:00;10.87;;;7.17;;